Flight Track Log - Related Links

Times and Time Zones

All times are in EST time to prevent confusion due to time zone crossing. See the AFL150 flight status page for this flight to view local times or setup timezone preferences in your user account.

Time Position Orientation Groundspeed Altitude Reporting Facility
EST Latitude Longitude Course Direction KTS MPH feet Rate Location/Type
Tue 09:00:00 AM 56.2594 37.0564 317° Northwest  Level FlightAware
Tue 09:01:00 AM 56.3474 36.9052 316° Northwest  Level FlightAware
Tue 09:02:00 AM 56.4352 36.7532 316° Northwest  Level FlightAware
Tue 09:03:00 AM 56.5228 36.6006 316° Northwest  Level FlightAware
Tue 09:04:00 AM 56.6103 36.4472 316° Northwest  Level FlightAware
Tue 09:05:00 AM 56.6975 36.2931 316° Northwest  Level FlightAware
Tue 09:06:00 AM 56.7846 36.1384 316° Northwest  Level FlightAware
Tue 09:07:00 AM 56.8714 35.9829 316° Northwest  Level FlightAware
Tue 09:08:00 AM 56.9581 35.8266 316° Northwest  Level FlightAware
Tue 09:09:00 AM 57.0446 35.6697 315° West  Level FlightAware
Tue 09:10:00 AM 57.1309 35.5120 315° West  Level FlightAware
Tue 09:11:00 AM 57.2169 35.3536 315° West  Level FlightAware
Tue 09:12:00 AM 57.3028 35.1944 315° West  Level FlightAware
Tue 09:13:00 AM 57.3885 35.0345 315° West  Level FlightAware
Tue 09:14:00 AM 57.4740 34.8739 315° West  Level FlightAware
Tue 09:15:00 AM 57.5592 34.7125 315° West  Level FlightAware
Tue 09:16:00 AM 57.6029 34.6287 314° West  Level FlightAware
Tue 09:17:00 AM 57.6870 34.4646 314° West  Level FlightAware
Tue 09:18:00 AM 57.7708 34.2997 314° West  Level FlightAware
Tue 09:19:00 AM 57.8545 34.1340 314° West  Level FlightAware
Tue 09:20:00 AM 57.9379 33.9676 313° West  Level FlightAware
Tue 09:21:00 AM 58.0211 33.8004 313° West  Level FlightAware
Tue 09:22:00 AM 58.1041 33.6324 313° West  Level FlightAware
Tue 09:23:00 AM 58.1869 33.4637 313° West  Level FlightAware
Tue 09:24:00 AM 58.2695 33.2941 313° West  Level FlightAware
Tue 09:25:00 AM 58.3518 33.1238 313° West  Level FlightAware
Tue 09:26:00 AM 58.4339 32.9527 313° West  Level FlightAware
Tue 09:27:00 AM 58.5158 32.7807 312° West  Level FlightAware
Tue 09:28:00 AM 58.5974 32.6080 312° West  Level FlightAware
Tue 09:29:00 AM 58.6788 32.4345 312° West  Level FlightAware
Tue 09:30:00 AM 58.7600 32.2601 312° West  Level FlightAware
Tue 09:31:00 AM 58.8410 32.0849 312° West  Level FlightAware
Tue 09:32:00 AM 58.9216 31.9090 312° West  Level FlightAware
Tue 09:33:00 AM 59.0021 31.7321 312° West  Level FlightAware
Tue 09:34:00 AM 59.0823 31.5545 311° West  Level FlightAware
Tue 09:35:00 AM 59.1623 31.3760 311° West  Level FlightAware
Tue 09:36:00 AM 59.2420 31.1967 311° West  Level FlightAware
Tue 09:37:00 AM 59.3215 31.0166 311° West  Level FlightAware
Tue 09:38:00 AM 59.4007 30.8356 311° West  Level FlightAware
Tue 09:39:00 AM 59.4797 30.6538 311° West  Level FlightAware
Tue 09:40:00 AM 59.5584 30.4711 310° West  Level FlightAware
Tue 09:41:00 AM 59.6369 30.2876 310° West  Level FlightAware
Tue 09:42:00 AM 59.7151 30.1032 310° West  Level FlightAware
Tue 09:43:00 AM 59.7931 29.9179 310° West  Level FlightAware
Tue 09:44:00 AM 59.8708 29.7318 310° West  Level FlightAware
Tue 09:45:00 AM 59.9482 29.5448 310° West  Level FlightAware
Tue 09:46:00 AM 60.0254 29.3569 309° West  Level FlightAware
Tue 09:47:00 AM 60.1022 29.1681 309° West  Level FlightAware
Tue 09:48:00 AM 60.1789 28.9785 309° West  Level FlightAware
Tue 09:49:00 AM 60.2552 28.7880 309° West  Level FlightAware
Tue 09:50:00 AM 60.3313 28.5966 309° West  Level FlightAware
Tue 09:51:00 AM 60.4071 28.4043 309° West  Level FlightAware
Tue 09:52:00 AM 60.4826 28.2111 308° West  Level FlightAware
Tue 09:53:00 AM 60.5579 28.0170 308° West  Level FlightAware
Tue 09:54:00 AM 60.6328 27.8220 308° West  Level FlightAware
Tue 09:55:00 AM 60.7075 27.6261 308° West  Level FlightAware
Tue 09:56:00 AM 60.7819 27.4293 308° West  Level FlightAware
Tue 09:57:00 AM 60.8560 27.2316 308° West  Level FlightAware
Tue 09:58:00 AM 60.9298 27.0329 307° West  Level FlightAware
Tue 09:59:00 AM 61.0033 26.8334 307° West  Level FlightAware
Tue 10:00:00 AM 61.0765 26.6329 307° West  Level FlightAware
Tue 10:01:00 AM 61.1494 26.4315 307° West  Level FlightAware
Tue 10:02:00 AM 61.2221 26.2291 307° West  Level FlightAware
Tue 10:03:00 AM 61.2944 26.0258 307° West  Level FlightAware
Tue 10:04:00 AM 61.3664 25.8216 306° West  Level FlightAware
Tue 10:05:00 AM 61.4381 25.6165 306° West  Level FlightAware
Tue 10:06:00 AM 61.5095 25.4104 306° West  Level FlightAware
Tue 10:07:00 AM 61.5806 25.2033 306° West  Level FlightAware
Tue 10:08:00 AM 61.6513 24.9953 306° West  Level FlightAware
Tue 10:09:00 AM 61.7215 24.7859 305° West  Level FlightAware
Tue 10:10:00 AM 61.7912 24.5754 305° West  Level FlightAware
Tue 10:11:00 AM 61.8606 24.3640 305° West  Level FlightAware
Tue 10:12:00 AM 61.9297 24.1516 305° West  Level FlightAware
Tue 10:13:00 AM 61.9985 23.9382 305° West  Level FlightAware
Tue 10:14:00 AM 62.0669 23.7239 304° West  Level FlightAware
Tue 10:15:00 AM 62.1350 23.5086 304° West  Level FlightAware
Tue 10:16:00 AM 62.2028 23.2924 304° West  Level FlightAware
Tue 10:17:00 AM 62.2702 23.0751 304° West  Level FlightAware
Tue 10:18:00 AM 62.3373 22.8570 304° West  Level FlightAware
Tue 10:19:00 AM 62.4040 22.6378 303° West  Level FlightAware
Tue 10:20:00 AM 62.4704 22.4176 303° West  Level FlightAware
Tue 10:21:00 AM 62.5365 22.1965 303° West  Level FlightAware
Tue 10:22:00 AM 62.6022 21.9744 303° West  Level FlightAware
Tue 10:23:00 AM 62.6675 21.7513 303° West  Level FlightAware
Tue 10:24:00 AM 62.7325 21.5273 302° West  Level FlightAware
Tue 10:25:00 AM 62.7971 21.3022 302° West  Level FlightAware
Tue 10:26:00 AM 62.8614 21.0762 302° West  Level FlightAware
Tue 10:27:00 AM 62.9253 20.8491 302° West  Level FlightAware
Tue 10:28:00 AM 62.9888 20.6211 302° West  Level FlightAware
Tue 10:29:00 AM 63.0520 20.3921 301° West  Level FlightAware
Tue 10:30:00 AM 63.1148 20.1621 301° West  Level FlightAware
Tue 10:31:00 AM 63.1772 19.9311 301° West  Level FlightAware
Tue 10:32:00 AM 63.2393 19.6991 301° West  Level FlightAware
Tue 10:33:00 AM 63.3009 19.4661 301° West  Level FlightAware
Tue 10:34:00 AM 63.3622 19.2321 300° West  Level FlightAware
Tue 10:35:00 AM 63.4231 18.9971 300° West  Level FlightAware
Tue 10:36:00 AM 63.4836 18.7611 300° West  Level FlightAware
Tue 10:37:00 AM 63.5438 18.5242 300° West  Level FlightAware
Tue 10:38:00 AM 63.6035 18.2862 300° West  Level FlightAware
Tue 10:39:00 AM 63.6630 18.0474 299° West  Level FlightAware
Tue 10:40:00 AM 63.7221 17.8077 299° West  Level FlightAware
Tue 10:41:00 AM 63.7808 17.5669 299° West  Level FlightAware
Tue 10:42:00 AM 63.8392 17.3252 299° West  Level FlightAware
Tue 10:43:00 AM 63.8971 17.0825 299° West  Level FlightAware
Tue 10:44:00 AM 63.9546 16.8387 298° West  Level FlightAware
Tue 10:45:00 AM 64.0117 16.5940 298° West  Level FlightAware
Tue 10:46:00 AM 64.0684 16.3483 298° West  Level FlightAware
Tue 10:47:00 AM 64.1247 16.1015 298° West  Level FlightAware
Tue 10:48:00 AM 64.1805 15.8538 297° West  Level FlightAware
Tue 10:49:00 AM 64.2359 15.6051 297° West  Level FlightAware
Tue 10:50:00 AM 64.2910 15.3553 297° West  Level FlightAware
Tue 10:51:00 AM 64.3455 15.1046 297° West  Level FlightAware
Tue 10:52:00 AM 64.3997 14.8529 297° West  Level FlightAware
Tue 10:53:00 AM 64.4534 14.6002 296° West  Level FlightAware
Tue 10:54:00 AM 64.5067 14.3465 296° West  Level FlightAware
Tue 10:55:00 AM 64.5595 14.0919 296° West  Level FlightAware
Tue 10:56:00 AM 64.6120 13.8362 296° West  Level FlightAware
Tue 10:57:00 AM 64.6639 13.5795 295° West  Level FlightAware
Tue 10:58:00 AM 64.7154 13.3219 295° West  Level FlightAware
Tue 10:59:00 AM 64.7665 13.0633 295° West  Level FlightAware
Tue 11:00:00 AM 64.8171 12.8037 295° West  Level FlightAware
Tue 11:01:00 AM 64.8674 12.5433 294° West  Level FlightAware
Tue 11:02:00 AM 64.9174 12.2821 294° West  Level FlightAware
Tue 11:03:00 AM 64.9669 12.0199 294° West  Level FlightAware
Tue 11:04:00 AM 65.0160 11.7568 294° West  Level FlightAware
Tue 11:05:00 AM 65.0646 11.4927 294° West  Level FlightAware
Tue 11:06:00 AM 65.1128 11.2276 293° West  Level FlightAware
Tue 11:07:00 AM 65.1605 10.9615 293° West  Level FlightAware
Tue 11:08:00 AM 65.2077 10.6946 293° West  Level FlightAware
Tue 11:09:00 AM 65.2544 10.4266 293° West  Level FlightAware
Tue 11:10:00 AM 65.3007 10.1578 292° West  Level FlightAware
Tue 11:11:00 AM 65.3465 9.8879 292° West  Level FlightAware
Tue 11:12:00 AM 65.3917 9.6172 292° West  Level FlightAware
Tue 11:13:00 AM 65.4366 9.3455 292° West  Level FlightAware
Tue 11:14:00 AM 65.4809 9.0729 291° West  Level FlightAware
Tue 11:15:00 AM 65.5247 8.7994 291° West  Level FlightAware
Tue 11:16:00 AM 65.5680 8.5249 291° West  Level FlightAware
Tue 11:17:00 AM 65.6109 8.2496 291° West  Level FlightAware
Tue 11:18:00 AM 65.6532 7.9733 291° West  Level FlightAware
Tue 11:19:00 AM 65.6951 7.6961 290° West  Level FlightAware
Tue 11:20:00 AM 65.7364 7.4181 290° West  Level FlightAware
Tue 11:21:00 AM 65.7772 7.1392 290° West  Level FlightAware
Tue 11:22:00 AM 65.8175 6.8593 289° West  Level FlightAware
Tue 11:23:00 AM 65.8573 6.5786 289° West  Level FlightAware
Tue 11:24:00 AM 65.8966 6.2971 289° West  Level FlightAware
Tue 11:25:00 AM 65.9354 6.0147 289° West  Level FlightAware
Tue 11:26:00 AM 65.9736 5.7314 288° West  Level FlightAware
Tue 11:27:00 AM 66.0114 5.4473 288° West  Level FlightAware
Tue 11:28:00 AM 66.0486 5.1623 288° West  Level FlightAware
Tue 11:29:00 AM 66.0852 4.8766 288° West  Level FlightAware
Tue 11:30:00 AM 66.1214 4.5900 287° West  Level FlightAware
Tue 11:31:00 AM 66.1570 4.3026 287° West  Level FlightAware
Tue 11:32:00 AM 66.1920 4.0143 287° West  Level FlightAware
Tue 11:33:00 AM 66.2266 3.7253 287° West  Level FlightAware
Tue 11:34:00 AM 66.2606 3.4356 286° West  Level FlightAware
Tue 11:35:00 AM 66.2941 3.1450 286° West  Level FlightAware
Tue 11:36:00 AM 66.3270 2.8537 286° West  Level FlightAware
Tue 11:37:00 AM 66.3593 2.5616 286° West  Level FlightAware
Tue 11:38:00 AM 66.3912 2.2687 285° West  Level FlightAware
Tue 11:39:00 AM 66.4224 1.9751 285° West  Level FlightAware
Tue 11:40:00 AM 66.4531 1.6808 285° West  Level FlightAware
Tue 11:41:00 AM 66.4833 1.3858 284° West  Level FlightAware
Tue 11:42:00 AM 66.5129 1.0901 284° West  Level FlightAware
Tue 11:43:00 AM 66.5420 0.7936 284° West  Level FlightAware
Tue 11:44:00 AM 66.5705 0.4965 284° West  Level FlightAware
Tue 11:45:00 AM 66.5984 0.1987 283° West  Level FlightAware
Tue 11:46:00 AM 66.6256 -0.0998 283° West  Level FlightAware
Tue 11:47:00 AM 66.6521 -0.3991 283° West  Level FlightAware
Tue 11:48:00 AM 66.6780 -0.6990 282° West  Level FlightAware
Tue 11:49:00 AM 66.7033 -0.9996 282° West  Level FlightAware
Tue 11:50:00 AM 66.7281 -1.3007 282° West  Level FlightAware
Tue 11:51:00 AM 66.7523 -1.6025 282° West  Level FlightAware
Tue 11:52:00 AM 66.7759 -1.9048 281° West  Level FlightAware
Tue 11:53:00 AM 66.7989 -2.2077 281° West  Level FlightAware
Tue 11:54:00 AM 66.8214 -2.5112 281° West  Level FlightAware
Tue 11:55:00 AM 66.8432 -2.8152 280° West  Level FlightAware
Tue 11:56:00 AM 66.8645 -3.1198 280° West  Level FlightAware
Tue 11:57:00 AM 66.8852 -3.4249 280° West  Level FlightAware
Tue 11:58:00 AM 66.9053 -3.7305 280° West  Level FlightAware
Tue 11:59:00 AM 66.9248 -4.0366 279° West  Level FlightAware
Tue 12:00:00 PM 66.9438 -4.3431 279° West  Level FlightAware
Tue 12:01:00 PM 66.9621 -4.6502 279° West  Level FlightAware
Tue 12:02:00 PM 66.9798 -4.9577 279° West  Level FlightAware
Tue 12:03:00 PM 66.9970 -5.2656 278° West  Level FlightAware
Tue 12:04:00 PM 67.0135 -5.5740 278° West  Level FlightAware
Tue 12:05:00 PM 67.0295 -5.8828 278° West  Level FlightAware
Tue 12:06:00 PM 67.0448 -6.1919 277° West  Level FlightAware
Tue 12:07:00 PM 67.0596 -6.5015 277° West  Level FlightAware
Tue 12:08:00 PM 67.0737 -6.8114 277° West  Level FlightAware
Tue 12:09:00 PM 67.0873 -7.1217 277° West  Level FlightAware
Tue 12:10:00 PM 67.1002 -7.4323 276° West  Level FlightAware
Tue 12:11:00 PM 67.1126 -7.7433 276° West  Level FlightAware
Tue 12:12:00 PM 67.1243 -8.0545 276° West  Level FlightAware
Tue 12:13:00 PM 67.1355 -8.3661 275° West  Level FlightAware
Tue 12:14:00 PM 67.1460 -8.6779 275° West  Level FlightAware
Tue 12:15:00 PM 67.1559 -8.9900 275° West  Level FlightAware
Tue 12:16:00 PM 67.1652 -9.3024 275° West  Level FlightAware
Tue 12:17:00 PM 67.1739 -9.6149 274° West  Level FlightAware
Tue 12:18:00 PM 67.1820 -9.9277 274° West  Level FlightAware
Tue 12:19:00 PM 67.1895 -10.2407 274° West  Level FlightAware
Tue 12:20:00 PM 67.1963 -10.5539 273° West  Level FlightAware
Tue 12:21:00 PM 67.2026 -10.8673 273° West  Level FlightAware
Tue 12:22:00 PM 67.2082 -11.1808 273° West  Level FlightAware
Tue 12:23:00 PM 67.2132 -11.4944 273° West  Level FlightAware
Tue 12:24:00 PM 67.2177 -11.8082 272° West  Level FlightAware
Tue 12:25:00 PM 67.2217 -12.1220 272° West  Level FlightAware
Tue 12:26:00 PM 67.2251 -12.4360 272° West  Level FlightAware
Tue 12:27:00 PM 67.2278 -12.7500 271° West  Level FlightAware
Tue 12:28:00 PM 67.2300 -13.0641 271° West  Level FlightAware
Tue 12:29:00 PM 67.2315 -13.3783 271° West  Level FlightAware
Tue 12:30:00 PM 67.2324 -13.6925 271° West  Level FlightAware
Tue 12:31:00 PM 67.2327 -14.0067 270° West  Level FlightAware
Tue 12:32:00 PM 67.2324 -14.3209 270° West  Level FlightAware
Tue 12:33:00 PM 67.2315 -14.6350 270° West  Level FlightAware
Tue 12:34:00 PM 67.2299 -14.9492 269° West  Level FlightAware
Tue 12:35:00 PM 67.2277 -15.2633 269° West  Level FlightAware
Tue 12:36:00 PM 67.2250 -15.5773 269° West  Level FlightAware
Tue 12:37:00 PM 67.2216 -15.8913 269° West  Level FlightAware
Tue 12:38:00 PM 67.2176 -16.2052 268° West  Level FlightAware
Tue 12:39:00 PM 67.2130 -16.5189 268° West  Level FlightAware
Tue 12:40:00 PM 67.2077 -16.8325 268° West  Level FlightAware
Tue 12:41:00 PM 67.2019 -17.1460 267° West  Level FlightAware
Tue 12:42:00 PM 67.1954 -17.4593 267° West  Level FlightAware
Tue 12:43:00 PM 67.1883 -17.7725 267° West  Level FlightAware
Tue 12:44:00 PM 67.1807 -18.0854 267° West  Level FlightAware
Tue 12:45:00 PM 67.1724 -18.3981 266° West  Level FlightAware
Tue 12:46:00 PM 67.1635 -18.7107 266° West  Level FlightAware
Tue 12:47:00 PM 67.1540 -19.0229 266° West  Level FlightAware
Tue 12:48:00 PM 67.1439 -19.3350 265° West  Level FlightAware
Tue 12:49:00 PM 67.1331 -19.6467 265° West  Level FlightAware
Tue 12:50:00 PM 67.1218 -19.9582 265° West  Level FlightAware
Tue 12:51:00 PM 67.1099 -20.2694 265° West  Level FlightAware
Tue 12:52:00 PM 67.0973 -20.5802 264° West  Level FlightAware
Tue 12:53:00 PM 67.0842 -20.8908 264° West  Level FlightAware
Tue 12:54:00 PM 67.0704 -21.2010 264° West  Level FlightAware
Tue 12:55:00 PM 67.0560 -21.5107 263° West  Level FlightAware
Tue 12:56:00 PM 67.0409 -21.8201 263° West  Level FlightAware
Tue 12:57:00 PM 67.0252 -22.1291 263° West  Level FlightAware
Tue 12:58:00 PM 67.0089 -22.4377 262° West  Level FlightAware
Tue 12:59:00 PM 66.9920 -22.7459 262° West  Level FlightAware
Tue 01:00:00 PM 66.9745 -23.0536 262° West  Level FlightAware
Tue 01:01:00 PM 66.9564 -23.3609 262° West  Level FlightAware
Tue 01:02:00 PM 66.9377 -23.6678 261° West  Level FlightAware
Tue 01:03:00 PM 66.9184 -23.9741 261° West  Level FlightAware
Tue 01:04:00 PM 66.8986 -24.2800 261° West  Level FlightAware
Tue 01:05:00 PM 66.8781 -24.5853 260° West  Level FlightAware
Tue 01:06:00 PM 66.8571 -24.8902 260° West  Level FlightAware
Tue 01:07:00 PM 66.8355 -25.1945 260° West  Level FlightAware
Tue 01:08:00 PM 66.8133 -25.4983 260° West  Level FlightAware
Tue 01:09:00 PM 66.7905 -25.8015 259° West  Level FlightAware
Tue 01:10:00 PM 66.7671 -26.1041 259° West  Level FlightAware
Tue 01:11:00 PM 66.7432 -26.4062 259° West  Level FlightAware
Tue 01:12:00 PM 66.7186 -26.7076 259° West  Level FlightAware
Tue 01:13:00 PM 66.6936 -27.0085 258° West  Level FlightAware
Tue 01:14:00 PM 66.6679 -27.3087 258° West  Level FlightAware
Tue 01:15:00 PM 66.6416 -27.6084 258° West  Level FlightAware
Tue 01:16:00 PM 66.6148 -27.9073 257° West  Level FlightAware
Tue 01:17:00 PM 66.5875 -28.2056 257° West  Level FlightAware
Tue 01:18:00 PM 66.5594 -28.5033 257° West  Level FlightAware
Tue 01:19:00 PM 66.5307 -28.8001 257° West  Level FlightAware
Tue 01:20:00 PM 66.5015 -29.0963 256° West  Level FlightAware
Tue 01:21:00 PM 66.4718 -29.3918 256° West  Level FlightAware
Tue 01:22:00 PM 66.4415 -29.6866 256° West  Level FlightAware
Tue 01:23:00 PM 66.4106 -29.9807 255° West  Level FlightAware
Tue 01:24:00 PM 66.3792 -30.2740 255° West  Level FlightAware
Tue 01:25:00 PM 66.3472 -30.5667 255° West  Level FlightAware
Tue 01:26:00 PM 66.3147 -30.8585 255° West  Level FlightAware
Tue 01:27:00 PM 66.2816 -31.1496 254° West  Level FlightAware
Tue 01:28:00 PM 66.2480 -31.4399 254° West  Level FlightAware
Tue 01:29:00 PM 66.2138 -31.7294 254° West  Level FlightAware
Tue 01:30:00 PM 66.1792 -32.0182 254° West  Level FlightAware
Tue 01:31:00 PM 66.1439 -32.3061 253° West  Level FlightAware
Tue 01:32:00 PM 66.1082 -32.5933 253° West  Level FlightAware
Tue 01:33:00 PM 66.0719 -32.8796 253° West  Level FlightAware
Tue 01:34:00 PM 66.0350 -33.1651 253° West  Level FlightAware
Tue 01:35:00 PM 65.9977 -33.4498 252° West  Level FlightAware
Tue 01:36:00 PM 65.9598 -33.7336 252° West  Level FlightAware
Tue 01:37:00 PM 65.9214 -34.0166 252° West  Level FlightAware
Tue 01:38:00 PM 65.8825 -34.2988 251° West  Level FlightAware
Tue 01:39:00 PM 65.8431 -34.5800 251° West  Level FlightAware
Tue 01:40:00 PM 65.8032 -34.8605 251° West  Level FlightAware
Tue 01:41:00 PM 65.7627 -35.1400 251° West  Level FlightAware
Tue 01:42:00 PM 65.7217 -35.4187 250° West  Level FlightAware
Tue 01:43:00 PM 65.6803 -35.6964 250° West  Level FlightAware
Tue 01:44:00 PM 65.6383 -35.9733 250° West  Level FlightAware
Tue 01:45:00 PM 65.5958 -36.2493 250° West  Level FlightAware
Tue 01:46:00 PM 65.5528 -36.5243 249° West  Level FlightAware
Tue 01:47:00 PM 65.5094 -36.7985 249° West  Level FlightAware
Tue 01:48:00 PM 65.4654 -37.0718 249° West  Level FlightAware
Tue 01:49:00 PM 65.4210 -37.3441 249° West  Level FlightAware
Tue 01:50:00 PM 65.3760 -37.6155 248° West  Level FlightAware
Tue 01:51:00 PM 65.3306 -37.8859 248° West  Level FlightAware
Tue 01:52:00 PM 65.2847 -38.1554 248° West  Level FlightAware
Tue 01:53:00 PM 65.2383 -38.4240 248° West  Level FlightAware
Tue 01:54:00 PM 65.1914 -38.6917 247° West  Level FlightAware
Tue 01:55:00 PM 65.1441 -38.9584 247° West  Level FlightAware
Tue 01:56:00 PM 65.0963 -39.2241 247° West  Level FlightAware
Tue 01:57:00 PM 65.0480 -39.4888 247° West  Level FlightAware
Tue 01:58:00 PM 64.9992 -39.7527 246° West  Level FlightAware
Tue 01:59:00 PM 64.9500 -40.0155 246° West  Level FlightAware
Tue 02:00:00 PM 64.9003 -40.2774 246° West  Level FlightAware
Tue 02:01:00 PM 64.8502 -40.5383 246° West  Level FlightAware
Tue 02:02:00 PM 64.7996 -40.7982 246° West  Level FlightAware
Tue 02:03:00 PM 64.7486 -41.0572 245° Southwest  Level FlightAware
Tue 02:04:00 PM 64.6973 -41.3154 245° Southwest  Level FlightAware
Tue 02:05:00 PM 64.6455 -41.5726 245° Southwest  Level FlightAware
Tue 02:06:00 PM 64.5933 -41.8288 245° Southwest  Level FlightAware
Tue 02:07:00 PM 64.5407 -42.0840 244° Southwest  Level FlightAware
Tue 02:08:00 PM 64.4876 -42.3382 244° Southwest  Level FlightAware
Tue 02:09:00 PM 64.4341 -42.5915 244° Southwest  Level FlightAware
Tue 02:10:00 PM 64.3801 -42.8437 244° Southwest  Level FlightAware
Tue 02:11:00 PM 64.3264 -43.0957 244° Southwest  Level FlightAware
Tue 02:12:00 PM 64.2730 -43.3476 244° Southwest  Level FlightAware
Tue 02:13:00 PM 64.2191 -43.5985 244° Southwest  Level FlightAware
Tue 02:14:00 PM 64.1649 -43.8485 244° Southwest  Level FlightAware
Tue 02:15:00 PM 64.1102 -44.0974 243° Southwest  Level FlightAware
Tue 02:16:00 PM 64.0551 -44.3454 243° Southwest  Level FlightAware
Tue 02:17:00 PM 63.9996 -44.5924 243° Southwest  Level FlightAware
Tue 02:18:00 PM 63.9436 -44.8384 243° Southwest  Level FlightAware
Tue 02:19:00 PM 63.8860 -45.0820 242° Southwest  Level FlightAware
Tue 02:20:00 PM 63.8277 -45.3241 241° Southwest  Level FlightAware
Tue 02:21:00 PM 63.7690 -45.5653 241° Southwest  Level FlightAware
Tue 02:22:00 PM 63.7099 -45.8055 241° Southwest  Level FlightAware
Tue 02:23:00 PM 63.6504 -46.0446 241° Southwest  Level FlightAware
Tue 02:24:00 PM 63.5905 -46.2827 241° Southwest  Level FlightAware
Tue 02:25:00 PM 63.5302 -46.5199 240° Southwest  Level FlightAware
Tue 02:26:00 PM 63.4695 -46.7560 240° Southwest  Level FlightAware
Tue 02:27:00 PM 63.4084 -46.9912 240° Southwest  Level FlightAware
Tue 02:28:00 PM 63.3470 -47.2253 240° Southwest  Level FlightAware
Tue 02:29:00 PM 63.2851 -47.4585 240° Southwest  Level FlightAware
Tue 02:30:00 PM 63.2229 -47.6906 239° Southwest  Level FlightAware
Tue 02:31:00 PM 63.1603 -47.9217 239° Southwest  Level FlightAware
Tue 02:32:00 PM 63.0973 -48.1519 239° Southwest  Level FlightAware
Tue 02:33:00 PM 63.0340 -48.3810 239° Southwest  Level FlightAware
Tue 02:34:00 PM 62.9703 -48.6091 239° Southwest  Level FlightAware
Tue 02:35:00 PM 62.9062 -48.8363 238° Southwest  Level FlightAware
Tue 02:36:00 PM 62.8418 -49.0624 238° Southwest  Level FlightAware
Tue 02:37:00 PM 62.7770 -49.2876 238° Southwest  Level FlightAware
Tue 02:38:00 PM 62.7118 -49.5118 238° Southwest  Level FlightAware
Tue 02:39:00 PM 62.6463 -49.7350 237° Southwest  Level FlightAware
Tue 02:40:00 PM 62.5804 -49.9571 237° Southwest  Level FlightAware
Tue 02:41:00 PM 62.5142 -50.1783 237° Southwest  Level FlightAware
Tue 02:42:00 PM 62.4476 -50.3986 237° Southwest  Level FlightAware
Tue 02:43:00 PM 62.3807 -50.6178 237° Southwest  Level FlightAware
Tue 02:44:00 PM 62.3135 -50.8361 237° Southwest  Level FlightAware
Tue 02:45:00 PM 62.2459 -51.0534 236° Southwest  Level FlightAware
Tue 02:46:00 PM 62.1780 -51.2697 236° Southwest  Level FlightAware
Tue 02:47:00 PM 62.1097 -51.4850 236° Southwest  Level FlightAware
Tue 02:48:00 PM 62.0411 -51.6994 236° Southwest  Level FlightAware
Tue 02:49:00 PM 61.9721 -51.9128 236° Southwest  Level FlightAware
Tue 02:50:00 PM 61.9029 -52.1252 235° Southwest  Level FlightAware
Tue 02:51:00 PM 61.8333 -52.3367 235° Southwest  Level FlightAware
Tue 02:52:00 PM 61.7634 -52.5472 235° Southwest  Level FlightAware
Tue 02:53:00 PM 61.6932 -52.7568 235° Southwest  Level FlightAware
Tue 02:54:00 PM 61.6226 -52.9654 235° Southwest  Level FlightAware
Tue 02:55:00 PM 61.5517 -53.1731 234° Southwest  Level FlightAware
Tue 02:56:00 PM 61.4806 -53.3798 234° Southwest  Level FlightAware
Tue 02:57:00 PM 61.4091 -53.5855 234° Southwest  Level FlightAware
Tue 02:58:00 PM 61.3373 -53.7904 234° Southwest  Level FlightAware
Tue 02:59:00 PM 61.2652 -53.9942 234° Southwest  Level FlightAware
Tue 02:59:14 PM 63.5000 -55.5667 219° Southwest 470 541 34,000  Level Gander Center
Tue 03:00:00 PM 61.1927 -54.1972 234° Southwest  Level FlightAware
Tue 03:00:14 PM 63.4333 -55.8000 238° Southwest 470 541 34,000  Level Gander Center
Tue 03:01:00 PM 61.0954 -54.3647 220° Southwest  Level Estimated
Tue 03:01:14 PM 63.3667 -56.0333 238° Southwest 480 552 34,000  Level Gander Center
Tue 03:02:00 PM 60.9979 -54.5311 220° Southwest  Level Estimated
Tue 03:02:14 PM 63.2833 -56.2667 232° Southwest 480 552 34,000  Level Gander Center
Tue 03:03:00 PM 60.9001 -54.6967 219° Southwest  Level Estimated
Tue 03:03:14 PM 63.2167 -56.5000 238° Southwest 470 541 34,000  Level Gander Center
Tue 03:04:00 PM 60.8021 -54.8612 219° Southwest  Level Estimated
Tue 03:04:14 PM 63.1333 -56.7333 232° Southwest 470 541 34,000  Level Gander Center
Tue 03:05:14 PM 63.0500 -56.9667 232° Southwest 470 541 34,000  Level Gander Center
Tue 03:06:14 PM 62.9833 -57.2000 238° Southwest 470 541 34,000  Level Gander Center
Tue 03:07:14 PM 62.9000 -57.4333 232° Southwest 460 529 34,000  Level Gander Center
Tue 03:08:14 PM 62.8500 -57.6500 243° Southwest 460 529 34,000  Level Gander Center
Tue 03:13:14 PM 62.4500 -58.7667 231° Southwest 480 552 34,000  Level Gander Center
Tue 03:14:14 PM 62.3667 -59.0333 236° Southwest 480 552 34,000  Level Gander Center
Tue 03:15:14 PM 62.3000 -59.2500 237° Southwest 480 552 34,000  Level Gander Center
Tue 03:27:14 PM 61.1500 -61.6000 220° Southwest 490 564 34,000  Level Gander Center
Tue 03:28:00 PM 61.1824 -61.4744 221° Southwest  Level FlightAware
Tue 03:28:14 PM 61.0500 -61.8000 224° Southwest 480 552 34,000  Level Gander Center
Tue 03:29:00 PM 61.0909 -61.6370 221° Southwest  Level FlightAware
Tue 03:29:14 PM 60.9667 -62.0000 229° Southwest 480 552 34,000  Level Gander Center
Tue 03:45:13 PM 59.4833 -65.0500 228° Southwest 470 541 34,000  Level Montreal Center
Tue 03:46:00 PM 59.6853 -65.0831 229° Southwest  Level FlightAware
Tue 03:46:13 PM 59.4000 -65.2000 223° Southwest 470 541 34,000  Level Montreal Center
Tue 03:47:00 PM 59.6053 -65.2615 229° Southwest  Level FlightAware
Tue 03:47:13 PM 59.3000 -65.3667 220° Southwest 470 541 34,000  Level Montreal Center
Tue 03:48:00 PM 59.5251 -65.4391 228° Southwest  Level FlightAware
Tue 03:48:13 PM 59.1833 -65.5333 216° Southwest 470 541 34,000  Level Montreal Center
Tue 03:49:00 PM 59.4447 -65.6159 228° Southwest  Level FlightAware
Tue 03:49:13 PM 59.0833 -65.7000 221° Southwest 470 541 34,000  Level Montreal Center
Tue 03:50:00 PM 59.3640 -65.7918 228° Southwest  Level FlightAware
Tue 03:50:13 PM 58.9833 -65.8667 221° Southwest 470 541 34,000  Level Montreal Center
Tue 03:51:13 PM 58.8833 -66.0167 218° Southwest 470 541 34,000  Level Montreal Center
Tue 03:52:13 PM 58.7833 -66.1833 221° Southwest 480 552 34,000  Level Montreal Center
Tue 03:53:13 PM 58.6667 -66.3333 214° Southwest 470 541 34,000  Level Montreal Center
Tue 03:54:13 PM 58.5667 -66.4667 215° Southwest 470 541 34,000  Level Montreal Center
Tue 03:55:13 PM 58.4667 -66.6167 218° Southwest 470 541 34,000  Level Montreal Center
Tue 03:56:13 PM 58.3667 -66.7667 218° Southwest 460 529 34,000  Level Montreal Center
Tue 03:57:13 PM 58.2667 -66.9333 221° Southwest 470 541 34,000  Level Montreal Center
Tue 03:58:13 PM 58.1667 -67.0833 218° Southwest 470 541 34,000  Level Montreal Center
Tue 03:59:13 PM 58.0500 -67.2333 214° Southwest 470 541 34,000  Level Montreal Center
Tue 04:00:13 PM 57.9500 -67.3833 219° Southwest 470 541 34,000  Level Montreal Center
Tue 04:01:13 PM 57.8500 -67.5333 219° Southwest 460 529 34,000  Level Montreal Center
Tue 04:02:13 PM 57.7333 -67.6667 211° Southwest 460 529 34,000  Level Montreal Center
Tue 04:03:13 PM 57.6333 -67.8167 219° Southwest 470 541 34,000  Level Montreal Center
Tue 04:04:13 PM 57.5333 -67.9667 219° Southwest 460 529 34,000  Level Montreal Center
Tue 04:05:13 PM 57.4167 -68.1000 212° Southwest 470 541 34,000  Level Montreal Center
Tue 04:06:13 PM 57.3167 -68.2500 219° Southwest 460 529 34,000  Level Montreal Center
Tue 04:07:13 PM 57.2167 -68.4000 219° Southwest 460 529 34,000  Level Montreal Center
Tue 04:08:13 PM 57.1167 -68.5500 219° Southwest 460 529 34,000  Level Montreal Center
Tue 04:09:13 PM 57.0167 -68.6667 212° Southwest 460 529 34,000  Level Montreal Center
Tue 04:10:13 PM 56.9000 -68.8000 212° Southwest 460 529 34,000  Level Montreal Center
Tue 04:11:13 PM 56.8000 -68.9500 219° Southwest 460 529 34,000  Level Montreal Center
Tue 04:12:13 PM 56.7000 -69.0833 216° Southwest 460 529 34,000  Level Montreal Center
Tue 04:13:13 PM 56.6000 -69.2333 220° Southwest 460 529 34,000  Level Montreal Center
Tue 04:14:13 PM 56.5000 -69.3333 209° Southwest 460 529 34,000  Level Montreal Center
Tue 04:18:13 PM 56.0667 -69.9000 226° Southwest 460 529 34,000  Level Montreal Center
Tue 04:19:13 PM 55.9833 -70.0333 222° Southwest 460 529 34,000  Level Montreal Center
Tue 04:20:13 PM 55.8667 -70.1333 206° Southwest 460 529 34,000  Level Montreal Center
Tue 04:21:13 PM 55.7667 -70.2667 217° Southwest 450 518 34,000  Level Montreal Center
Tue 04:22:13 PM 55.6500 -70.4167 216° Southwest 450 518 34,000  Level Montreal Center
Tue 04:23:00 PM 55.7635 -70.6877 226° Southwest  Level FlightAware
Tue 04:23:13 PM 55.5667 -70.5333 218° Southwest 450 518 34,000  Level Montreal Center
Tue 04:24:13 PM 55.4500 -70.6500 210° Southwest 450 518 34,000  Level Montreal Center
Tue 04:25:13 PM 55.3500 -70.7833 217° Southwest 450 518 34,000  Level Montreal Center
Tue 04:26:13 PM 55.2333 -70.9167 213° Southwest 450 518 34,000  Level Montreal Center
Tue 04:27:13 PM 55.1333 -71.0167 210° Southwest 450 518 34,000  Level Montreal Center
Tue 04:28:13 PM 55.0167 -71.1500 213° Southwest 460 529 34,000  Level Montreal Center
Tue 04:29:13 PM 54.9167 -71.2667 214° Southwest 460 529 34,000  Level Montreal Center
Tue 04:30:13 PM 54.8000 -71.4000 213° Southwest 460 529 34,000  Level Montreal Center
Tue 04:31:13 PM 54.6833 -71.5333 213° Southwest 460 529 34,000  Level Montreal Center
Tue 04:32:13 PM 54.6000 -71.6333 215° Southwest 460 529 34,000  Level Montreal Center
Tue 04:33:13 PM 54.4833 -71.7667 214° Southwest 460 529 34,000  Level Montreal Center
Tue 04:34:13 PM 54.3833 -71.8833 214° Southwest 450 518 34,000  Level Montreal Center
Tue 04:35:13 PM 54.2667 -72.0167 214° Southwest 460 529 34,000  Level Montreal Center
Tue 04:36:13 PM 54.1667 -72.1000 206° Southwest 460 529 34,000  Level Montreal Center
Tue 04:37:13 PM 54.0500 -72.2333 214° Southwest 460 529 34,000  Level Montreal Center
Tue 04:38:13 PM 53.9667 -72.3500 219° Southwest 460 529 34,000  Level Montreal Center
Tue 04:39:13 PM 53.8500 -72.4833 214° Southwest 460 529 34,000  Level Montreal Center
Tue 04:40:13 PM 53.7333 -72.6000 211° Southwest 450 518 34,000  Level Montreal Center
Tue 04:41:13 PM 53.6333 -72.7333 218° Southwest 450 518 34,000  Level Montreal Center
Tue 04:42:13 PM 53.5167 -72.8167 203° Southwest 450 518 34,000  Level Montreal Center
Tue 04:43:13 PM 53.4167 -72.9333 215° Southwest 450 518 34,000  Level Montreal Center
Tue 04:44:13 PM 53.3000 -73.0667 214° Southwest 450 518 34,000  Level Montreal Center
Tue 04:45:13 PM 53.2000 -73.1500 207° Southwest 440 506 34,000  Level Montreal Center
Tue 04:46:13 PM 53.1000 -73.2667 215° Southwest 440 506 34,000  Level Montreal Center
Tue 04:47:13 PM 53.0000 -73.3833 215° Southwest 440 506 34,000  Level Montreal Center
Tue 04:48:13 PM 52.9000 -73.4833 211° Southwest 440 506 34,000  Level Montreal Center
Tue 04:49:13 PM 52.8000 -73.6000 215° Southwest 440 506 34,000  Level Montreal Center
Tue 04:50:13 PM 52.6833 -73.7167 211° Southwest 450 518 34,000  Level Montreal Center
Tue 04:51:13 PM 52.5833 -73.8333 215° Southwest 450 518 34,000  Level Montreal Center
Tue 04:52:13 PM 52.4667 -73.9500 211° Southwest 450 518 34,000  Level Montreal Center
Tue 04:53:13 PM 52.3667 -74.0333 207° Southwest 450 518 34,000  Level Montreal Center
Tue 04:54:13 PM 52.2500 -74.1500 211° Southwest 450 518 34,000  Level Montreal Center
Tue 05:03:13 PM 51.3000 -75.0833 211° Southwest 440 506 34,000  Level Montreal Center
Tue 05:04:00 PM 51.2581 -75.1686 211° Southwest  Level FlightAware
Tue 05:04:13 PM 51.1833 -75.1833 208° Southwest 440 506 34,000  Level Montreal Center
Tue 05:05:00 PM 51.1553 -75.2680 211° Southwest  Level FlightAware
Tue 05:05:13 PM 51.0833 -75.2667 208° Southwest 440 506 34,000  Level Montreal Center
Tue 05:06:00 PM 51.0525 -75.3670 211° Southwest  Level FlightAware
Tue 05:06:13 PM 50.9667 -75.3833 212° Southwest 440 506 34,000  Level Montreal Center
Tue 05:07:00 PM 50.9497 -75.4658 211° Southwest  Level FlightAware
Tue 05:07:13 PM 50.8667 -75.4833 212° Southwest 440 506 34,000  Level Montreal Center
Tue 05:08:00 PM 50.8471 -75.5644 211° Southwest  Level FlightAware
Tue 05:08:13 PM 50.7500 -75.5667 204° Southwest 440 506 34,000  Level Montreal Center
Tue 05:09:13 PM 50.6500 -75.6667 212° Southwest 440 506 34,000  Level Montreal Center
Tue 05:10:13 PM 50.5333 -75.7833 212° Southwest 440 506 34,000  Level Montreal Center
Tue 05:11:13 PM 50.4333 -75.8667 208° Southwest 440 506 34,000  Level Montreal Center
Tue 05:12:13 PM 50.3333 -75.9667 213° Southwest 440 506 34,000  Level Montreal Center
Tue 05:13:13 PM 50.2333 -76.0667 213° Southwest 440 506 34,000  Level Montreal Center
Tue 05:14:13 PM 50.1167 -76.1833 213° Southwest 440 506 34,000  Level Montreal Center
Tue 05:15:13 PM 50.0000 -76.2500 200° South 440 506 34,000  Level Montreal Center
Tue 05:16:13 PM 49.9000 -76.3500 213° Southwest 440 506 34,000  Level Montreal Center
Tue 05:17:13 PM 49.7833 -76.4333 205° Southwest 440 506 34,000  Level Montreal Center
Tue 05:18:13 PM 49.6833 -76.5333 213° Southwest 440 506 34,000  Level Montreal Center
Tue 05:19:13 PM 49.5833 -76.6333 213° Southwest 430 495 34,000  Level Montreal Center
Tue 05:20:13 PM 49.4667 -76.7167 205° Southwest 450 518 34,000  Level Montreal Center
Tue 05:21:13 PM 49.3667 -76.8167 213° Southwest 440 506 34,000  Level Montreal Center
Tue 05:22:13 PM 49.2667 -76.9167 213° Southwest 430 495 34,000  Level Montreal Center
Tue 05:23:13 PM 49.1500 -77.0000 205° Southwest 440 506 34,000  Level Montreal Center
Tue 05:24:13 PM 49.0500 -77.1000 213° Southwest 430 495 34,000  Level Montreal Center
Tue 05:25:13 PM 48.9500 -77.1667 204° Southwest 440 506 34,000  Level Montreal Center
Tue 05:26:13 PM 48.8167 -77.2667 206° Southwest 440 506 34,000  Level Montreal Center
Tue 05:27:13 PM 48.7167 -77.3667 213° Southwest 440 506 34,000  Level Montreal Center
Tue 05:28:13 PM 48.6167 -77.4333 204° Southwest 440 506 34,000  Level Montreal Center
Tue 05:29:13 PM 48.5000 -77.5333 210° Southwest 440 506 34,000  Level Montreal Center
Tue 05:30:13 PM 48.4000 -77.6333 214° Southwest 440 506 34,000  Level Montreal Center
Tue 05:31:13 PM 48.3000 -77.7333 214° Southwest 440 506 34,000  Level Montreal Center
Tue 05:32:13 PM 48.1833 -77.8000 201° Southwest 440 506 34,000  Level Montreal Center
Tue 05:33:13 PM 48.0667 -77.8833 206° Southwest 450 518 34,000  Level Montreal Center
Tue 05:34:13 PM 47.9500 -77.9500 201° Southwest 450 518 34,000  Level Montreal Center
Tue 05:38:13 PM 47.4833 -78.2333 201° Southwest 440 506 34,000  Level Montreal Center
Tue 05:39:13 PM 47.3833 -78.2667 193° South 440 506 34,000  Level Montreal Center
Tue 05:40:13 PM 47.2667 -78.3500 206° Southwest 440 506 34,000  Level Montreal Center
Tue 05:41:13 PM 47.1500 -78.4167 201° Southwest 440 506 34,000  Level Montreal Center
Tue 05:42:13 PM 47.0333 -78.4833 201° Southwest 430 495 34,000  Level Montreal Center
Tue 05:43:00 PM 46.9768 -78.4963 201° Southwest  Level FlightAware
Tue 05:43:13 PM 46.9167 -78.5500 201° Southwest 430 495 34,000  Level Montreal Center
Tue 05:44:13 PM 46.8167 -78.6167 205° Southwest 430 495 34,000  Level Montreal Center
Tue 05:54:13 PM 45.6833 -79.2333 200° South 430 495 34,000  Level Montreal Center
Tue 05:55:00 PM 45.6137 -79.2476 200° South  Level FlightAware
Tue 05:55:13 PM 45.5667 -79.2667 191° South 430 495 34,000  Level Montreal Center
Tue 05:56:00 PM 45.5006 -79.3054 200° South  Level FlightAware
Tue 05:57:00 PM 45.3874 -79.3631 200° South  Level FlightAware
Tue 05:58:00 PM 45.2742 -79.4204 200° South  Level FlightAware
Tue 05:59:00 PM 45.1610 -79.4776 200° South  Level FlightAware
Tue 06:00:31 PM 44.9875 -79.5841 191° South 425 489 34,000  Level FlightAware (CYKF)
Tue 06:02:45 PM 44.9043 -79.6274 200° South 425 489 34,000  Level FlightAware
Tue 06:05:11 PM 44.4859 -79.8792 203° Southwest 424 488 34,000  Level FlightAware (CYKF)
Tue 06:05:27 PM 44.4859 -79.8792 203° Southwest 416 479 34,000  Level FlightAware (CYKF)
Tue 06:06:23 PM 44.4859 -79.8792 203° Southwest 413 475 34,000  Level FlightAware (CYKF)
Tue 06:07:17 PM 44.2831 -80.0623 213° Southwest 413 475 34,000  Level FlightAware (CYKF)
Tue 06:08:39 PM 44.1541 -80.1773 213° Southwest 399 459 34,000  Level FlightAware (CYKF)
Tue 06:09:39 PM 44.0606 -80.2606 213° Southwest 402 463 34,000  Level FlightAware (CYKF)
Tue 06:10:19 PM 43.9989 -80.3152 212° Southwest 401 461 34,000  Level FlightAware (CYKF)
Tue 06:10:54 PM 43.9430 -80.3646 212° Southwest 400 460 34,000  Level FlightAware (CYKF)
Tue 06:11:40 PM 43.8722 -80.4269 212° Southwest 403 464 34,000  Level FlightAware (CYKF)
Tue 06:12:18 PM 43.8151 -80.4773 212° Southwest 404 465 34,000  Level FlightAware (CYKF)
Tue 06:12:55 PM 43.7590 -80.5264 212° Southwest 403 464 34,000  Level FlightAware (CYKF)
Tue 06:13:25 PM 43.7064 -80.5724 212° Southwest 402 463 34,000  Level FlightAware
Tue 06:13:56 PM 43.6738 -80.6007 212° Southwest 401 461 34,000  Level FlightAware (CYKF)
Tue 06:14:32 PM 43.6011 -80.6641 212° Southwest 400 460 34,000  Level FlightAware (CZBA)
Tue 06:15:05 PM 43.6245 -80.6437 32° Northeast 400 460 34,000  Level FlightAware
Tue 06:15:40 PM 43.4941 -80.7571 212° Southwest 404 465 34,000  Level FlightAware (CYKF)
Tue 06:16:41 PM 43.3975 -80.8409 212° Southwest 405 466 34,000  Level FlightAware (CYKF)
Tue 06:17:16 PM 43.3456 -80.8856 212° Southwest 406 467 34,000  Level FlightAware (CYKF)
Tue 06:18:00 PM 43.2955 -80.9286 212° Southwest 406 467 34,000  Level FlightAware (CYKF)
Tue 06:18:35 PM 43.2178 -80.9952 212° Southwest 407 468 34,000  Level FlightAware (CYKF)
Tue 06:19:18 PM 43.1501 -81.0534 212° Southwest 404 465 34,000  Level FlightAware (CYKF)
Tue 06:19:59 PM 43.0912 -81.1037 212° Southwest 405 466 34,000  Level FlightAware (CYKF)
Tue 06:20:39 PM 43.0185 -81.1607 210° Southwest 409 471 34,000  Level FlightAware (CYKF)
Tue 06:21:20 PM 42.9789 -81.1843 204° Southwest 412 474 34,000  Level FlightAware (CYKF)
Tue 06:22:00 PM 42.8908 -81.2395 205° Southwest 411 473 34,000  Level FlightAware (CYKF)
Tue 06:22:36 PM 42.8158 -81.2863 205° Southwest 412 474 34,000  Level FlightAware (CYKF)
Tue 06:23:20 PM 42.7696 -81.3148 204° Southwest 411 473 34,000  Level FlightAware (CYKF)
Tue 06:24:00 PM 42.6738 -81.3736 204° Southwest 410 472 34,000  Level FlightAware (CYKF)
Tue 06:25:27 PM 42.5201 -81.4674 204° Southwest 408 470 34,000  Level FlightAware (CYKF)
Tue 06:26:21 PM 42.4167 -81.5000 204° Southwest 400 460 34,000  Level Toronto Center
Tue 06:27:23 PM 42.3242 -81.5858 214° Southwest 405 466 34,000  Level Cleveland Center
Tue 06:28:25 PM 42.2217 -81.6489 204° Southwest 403 464 34,000  Level Cleveland Center
Tue 06:29:27 PM 42.1197 -81.7108 204° Southwest 402 463 34,000  Level Cleveland Center
Tue 06:30:29 PM 42.0164 -81.7711 203° Southwest 402 463 34,000  Level Cleveland Center
Tue 06:31:31 PM 41.9131 -81.8339 204° Southwest 404 465 34,000  Level Cleveland Center
Tue 06:32:33 PM 41.8114 -81.8939 204° Southwest 397 457 34,000  Level Cleveland Center
Tue 06:33:35 PM 41.7100 -81.9542 204° Southwest 398 458 34,000  Level Cleveland Center
Tue 06:34:38 PM 41.5911 -82.0250 204° Southwest 398 458 34,000  Level Cleveland Center
Tue 06:35:40 PM 41.4892 -82.0833 203° Southwest 398 458 34,000  Level Cleveland Center
Tue 06:36:42 PM 41.3869 -82.1433 204° Southwest 399 459 34,000  Level Cleveland Center
Tue 06:37:44 PM 41.2789 -82.1881 197° South 405 466 34,000  Level Cleveland Center
Tue 06:38:46 PM 41.1683 -82.2292 196° South 409 471 34,000  Level Cleveland Center
Tue 06:39:48 PM 41.0389 -82.2747 195° South 410 472 34,000  Level Cleveland Center
Tue 06:40:50 PM 40.9300 -82.3128 195° South 404 465 34,000  Level Cleveland Center
Tue 06:41:52 PM 40.8214 -82.3531 196° South 403 464 34,000  Level Cleveland Center
Tue 06:42:54 PM 40.7122 -82.3914 195° South 403 464 34,000  Level Cleveland Center
Tue 06:43:56 PM 40.6044 -82.4286 195° South 402 463 34,000  Level Cleveland Center
Tue 06:44:58 PM 40.4936 -82.4686 195° South 396 456 34,000  Level Cleveland Center
Tue 06:49:13 PM 40.0254 -82.5965 195° South 410 472 34,000  Level FlightAware
Tue 06:50:08 PM 39.9311 -82.6039 183° South 406 467 34,000  Level Cleveland Center
Tue 06:58:36 PM 39.0122 -82.6647 184° South 395 455 34,000 64 Level Indianapolis Center
Tue 06:59:00 PM 38.9017 -82.6607 183° South  Level FlightAware
Tue 07:00:00 PM 38.7819 -82.6584 183° South  Level Estimated
Tue 07:01:00 PM 38.6623 -82.6680 184° South  Level FlightAware
Tue 07:02:00 PM 38.5427 -82.6775 184° South  Level FlightAware
Tue 07:03:00 PM 38.4231 -82.6870 184° South  Level FlightAware
Tue 07:04:11 PM 38.3822 -82.7061 184° South 384 442 34,900  Level FlightAware
Tue 07:05:01 PM 38.2942 -82.7119 183° South 381 438 35,000 63 Climbing FlightAware
Tue 07:05:47 PM 38.2250 -82.7153 183° South 380 437 35,000 170 Level Indianapolis Center
Tue 07:10:54 PM 37.6811 -82.7631 207° Southwest 374 430 36,000 109 Climbing Indianapolis Center
Tue 07:14:59 PM 37.3467 -82.9697 265° West 333 383 36,000  Level Indianapolis Center
Tue 07:15:00 PM 37.1838 -83.0598 207° Southwest  Level FlightAware
Tue 07:16:00 PM 37.0778 -83.1287 207° Southwest  Level FlightAware
Tue 07:16:01 PM 37.2642 -83.0247 208° Southwest 335 386 36,000  Level Indianapolis Center
Tue 07:17:02 PM 37.1808 -83.0781 207° Southwest 336 387 36,000  Level Indianapolis Center
Tue 07:18:03 PM 37.0981 -83.1317 207° Southwest 336 387 36,000  Level Indianapolis Center
Tue 07:19:00 PM 36.7269 -82.8051 207° Southwest  Level Estimated
Tue 07:19:05 PM 37.0008 -83.1956 208° Southwest 340 391 36,000  Level Indianapolis Center
Tue 07:20:00 PM 36.7160 -82.9534 265° West  Level FlightAware
Tue 07:20:06 PM 36.9181 -83.2486 207° Southwest 337 388 36,000  Level Indianapolis Center
Tue 07:21:08 PM 36.8350 -83.3033 208° Southwest 339 390 36,000  Level Indianapolis Center
Tue 07:22:09 PM 36.7508 -83.3569 207° Southwest 340 391 36,000  Level Indianapolis Center
Tue 07:23:10 PM 36.6661 -83.4111 207° Southwest 342 394 36,000  Level Indianapolis Center
Tue 07:24:12 PM 36.5817 -83.4656 207° Southwest 342 394 36,000  Level Indianapolis Center
Tue 07:25:13 PM 36.4911 -83.5228 207° Southwest 341 392 36,000  Level Indianapolis Center
Tue 07:26:15 PM 36.4058 -83.5783 208° Southwest 344 396 36,000  Level Indianapolis Center
Tue 07:27:16 PM 36.3194 -83.6336 207° Southwest 347 399 36,000  Level Indianapolis Center
Tue 07:28:18 PM 36.2322 -83.6881 207° Southwest 350 403 36,000  Level Indianapolis Center
Tue 07:29:19 PM 36.1453 -83.7422 207° Southwest 348 400 36,000  Level Indianapolis Center
Tue 07:30:05 PM 36.0725 -83.7922 209° Southwest 344 396 36,000  Level Atlanta Center
Tue 07:31:05 PM 35.9850 -83.8464 207° Southwest 344 396 36,000 -50 Level Atlanta Center
Tue 07:32:05 PM 35.8975 -83.8953 204° Southwest 344 396 35,900 -104 Descending Atlanta Center
Tue 07:34:00 PM 35.6718 -83.9479 191° South  Level FlightAware
Tue 07:40:42 PM 35.0264 -84.1069 191° South 365 420 35,000  Level FlightAware (KDZJ)
Tue 07:41:23 PM 34.9543 -84.1242 191° South 374 430 35,000  Level FlightAware (KDZJ)
Tue 07:47:05 PM 34.3722 -84.2603 191° South 376 433 35,000  Level Atlanta Center
Tue 07:48:00 PM 34.1797 -84.3041 189° South  Level FlightAware
Tue 07:48:05 PM 34.2678 -84.2850 191° South 376 433 35,000  Level Atlanta Center
Tue 07:49:00 PM 34.0621 -84.3276 189° South  Level FlightAware
Tue 07:49:05 PM 34.1656 -84.3100 191° South 376 433 35,000  Level Atlanta Center
Tue 07:50:00 PM 33.9450 -84.3546 191° South  Level FlightAware
Tue 07:50:05 PM 34.0653 -84.3347 192° South 392 451 35,000  Level Atlanta Center
Tue 07:51:00 PM 33.8281 -84.3827 191° South  Level FlightAware
Tue 07:51:05 PM 33.9628 -84.3594 191° South 392 451 35,000  Level Atlanta Center
Tue 07:52:00 PM 33.7112 -84.4107 191° South  Level FlightAware
Tue 07:52:05 PM 33.8586 -84.3842 191° South 392 451 35,000  Level Atlanta Center
Tue 07:53:05 PM 33.7478 -84.4086 190° South 397 457 35,000  Level Atlanta Center
Tue 07:54:05 PM 33.6414 -84.4331 191° South 391 450 35,000  Level Atlanta Center
Tue 07:55:05 PM 33.5181 -84.4375 182° South 402 463 35,000  Level Atlanta Center
Tue 07:56:05 PM 33.4011 -84.4344 179° South 408 470 35,000  Level Atlanta Center
Tue 07:57:05 PM 33.2864 -84.4314 179° South 414 476 35,000  Level Atlanta Center
Tue 07:58:05 PM 33.1694 -84.4283 179° South 419 482 35,000  Level Atlanta Center
Tue 07:59:05 PM 33.0528 -84.4256 179° South 419 482 35,000  Level Atlanta Center
Tue 08:00:05 PM 32.9378 -84.4250 180° South 419 482 35,000  Level Atlanta Center
Tue 08:01:05 PM 32.8167 -84.4244 180° South 419 482 35,000  Level Atlanta Center
Tue 08:02:05 PM 32.7125 -84.4189 177° South 419 482 35,000  Level Atlanta Center
Tue 08:03:41 PM 32.5206 -84.4128 178° South 421 484 35,000  Level Jacksonville Center
Tue 08:04:41 PM 32.4017 -84.4108 179° South 427 491 35,000  Level Jacksonville Center
Tue 08:05:41 PM 32.2806 -84.4086 179° South 433 498 35,000  Level Jacksonville Center
Tue 08:06:41 PM 32.1594 -84.4067 179° South 433 498 35,000  Level Jacksonville Center
Tue 08:07:41 PM 32.0406 -84.4047 179° South 433 498 35,000  Level Jacksonville Center
Tue 08:08:41 PM 31.9175 -84.4028 179° South 438 504 35,000  Level Jacksonville Center
Tue 08:09:41 PM 31.7983 -84.4008 179° South 438 504 35,000  Level Jacksonville Center
Tue 08:10:41 PM 31.6775 -84.3989 179° South 438 504 35,000  Level Jacksonville Center
Tue 08:16:30 PM 30.9532 -84.3817 179° South 446 513 35,000  Level FlightAware (KONZ)
Tue 08:17:07 PM 30.8769 -84.3802 179° South 447 514 35,000  Level FlightAware (KONZ)
Tue 08:17:46 PM 30.7964 -84.3786 179° South 449 517 35,000  Level FlightAware (KONZ)
Tue 08:18:30 PM 30.7096 -84.3762 179° South 456 525 35,000  Level FlightAware (KONZ)
Tue 08:19:09 PM 30.6226 -84.3638 173° South 470 541 35,000  Level FlightAware (KONZ)
Tue 08:19:45 PM 30.5453 -84.3423 166° South 486 559 35,000  Level FlightAware (KONZ)
Tue 08:20:30 PM 30.4488 -84.3000 159° South 494 568 35,000  Level FlightAware (KONZ)
Tue 08:21:41 PM 30.3056 -84.2111 159° South 490 564 35,000  Level Jacksonville Center
Tue 08:22:41 PM 30.1811 -84.1300 151° Southeast 501 577 35,000  Level Jacksonville Center
Tue 08:23:41 PM 30.0567 -84.0492 151° Southeast 508 585 35,000  Level Jacksonville Center
Tue 08:24:41 PM 29.9364 -83.9689 150° Southeast 508 585 35,000  Level Jacksonville Center
Tue 08:25:41 PM 29.8139 -83.8883 150° Southeast 508 585 35,000  Level Jacksonville Center
Tue 08:26:41 PM 29.6892 -83.8083 151° Southeast 508 585 35,000  Level Jacksonville Center
Tue 08:27:41 PM 29.5664 -83.7258 150° Southeast 508 585 35,000  Level Jacksonville Center
Tue 08:28:41 PM 29.4458 -83.6439 149° Southeast 508 585 35,000  Level Jacksonville Center
Tue 08:29:41 PM 29.3211 -83.5619 150° Southeast 513 590 35,000  Level Jacksonville Center
Tue 08:35:11 PM 28.6409 -83.1157 150° Southeast 506 582 35,000  Level FlightAware
Tue 08:35:50 PM 28.5914 -83.0836 150° Southeast 505 581 35,000  Level FlightAware
Tue 08:37:04 PM 28.4125 -82.9678 150° Southeast 508 585 35,000  Level FlightAware
Tue 08:38:11 PM 28.2748 -82.8790 150° Southeast 510 587 35,000  Level FlightAware
Tue 08:38:49 PM 28.2028 -82.8327 150° Southeast 511 588 35,000  Level FlightAware
Tue 08:39:31 PM 28.1108 -82.7735 150° Southeast 510 587 35,000  Level FlightAware
Tue 08:40:26 PM 27.9965 -82.7003 150° Southeast 509 586 35,000  Level FlightAware
Tue 08:41:13 PM 27.9000 -82.6385 151° Southeast 511 588 35,000  Level FlightAware
Tue 08:41:54 PM 27.8192 -82.5870 151° Southeast 511 588 35,000  Level FlightAware
Tue 08:42:34 PM 27.7343 -82.5328 151° Southeast 508 585 35,000  Level FlightAware
Tue 08:43:14 PM 27.6614 -82.4864 151° Southeast 506 582 35,000  Level FlightAware
Tue 08:43:54 PM 27.5937 -82.4434 151° Southeast 503 579 35,000  Level FlightAware
Tue 08:44:36 PM 27.4868 -82.3756 151° Southeast 502 578 35,000  Level FlightAware
Tue 08:45:29 PM 27.3777 -82.3067 151° Southeast 503 579 35,000  Level FlightAware
Tue 08:46:11 PM 27.3153 -82.2673 151° Southeast 505 581 35,000  Level FlightAware
Tue 08:46:29 PM 27.2753 -82.2425 183° South 507 583 35,000  Level Miami Center
Tue 08:47:16 PM 27.1615 -82.1703 151° Southeast 505 581 35,000  Level FlightAware
Tue 08:50:00 PM 26.8372 -82.1895 183° South  Level Estimated
Tue 08:51:00 PM 26.7185 -82.1964 183° South  Level Estimated
Tue 08:52:17 PM 26.5293 -82.2025 183° South 447 514 35,000  Level FlightAware
Tue 08:52:58 PM 26.4459 -82.2131 187° South 451 519 35,000  Level FlightAware
Tue 08:53:37 PM 26.3641 -82.2236 187° South 450 518 35,000  Level FlightAware
Tue 08:54:18 PM 26.2807 -82.2342 187° South 449 517 35,000  Level FlightAware
Tue 08:54:58 PM 26.1976 -82.2447 186° South 451 519 35,000  Level FlightAware
Tue 08:55:38 PM 26.1232 -82.2542 187° South 452 520 35,000  Level FlightAware
Tue 08:56:18 PM 26.0311 -82.2658 186° South 452 520 35,000  Level FlightAware
Tue 08:56:57 PM 25.9631 -82.2744 186° South 455 524 35,000  Level FlightAware
Tue 08:57:30 PM 25.8794 -82.2850 186° South 457 526 35,000 -275 Level FlightAware
Tue 09:07:29 PM 24.6525 -82.4408 185° South 463 533 32,100 -455 Descending Miami Center
Tue 09:08:00 PM 24.6396 -82.4602 184° South  Level FlightAware
Tue 09:08:29 PM 24.5181 -82.4575 186° South 463 533 30,000  Level Miami Center
Tue 09:09:00 PM 24.5208 -82.4703 184° South  Level FlightAware
Tue 09:09:29 PM 24.3986 -82.4728 187° South 451 519 28,200  Level Miami Center
Tue 09:10:00 PM 24.4020 -82.4803 184° South  Level FlightAware
Tue 09:10:29 PM 24.2811 -82.4878 187° South 440 506 26,400  Level Miami Center
Tue 09:11:00 PM 24.2830 -82.4833 180° South  Level FlightAware
Tue 09:11:29 PM 24.1742 -82.5014 187° South 420 483 24,700  Level Miami Center
Tue 09:12:00 PM 24.1641 -82.4911 185° South  Level FlightAware
Tue 09:12:29 PM 24.0631 -82.5144 186° South 406 467 23,100  Level Miami Center
Tue 09:14:00 PM 23.8867 -82.5005 173° South  Level FlightAware
Tue 09:21:00 PM 23.0586 -82.4017 170° South  Level FlightAware
Tue 09:22:00 PM 22.9891 -82.4091 180° South  Level Estimated
Tue 09:23:00 PM 22.9891 -82.4091 180° South  Level Estimated
Tue 09:24:00 PM 22.9891 -82.4091 180° South  Level Estimated
Tue 09:25:00 PM 22.9891 -82.4091 180° South  Level Estimated
Tue 09:26:00 PM 22.9891 -82.4091 180° South  Level Estimated
Tue 09:27:00 PM 22.9891 -82.4091 180° South  Level Estimated
Tue 09:28:00 PM 22.9891 -82.4091 180° South  Level Estimated
Tue 09:29:00 PM 22.9891 -82.4091 180° South  Level Estimated
Tue 09:30:00 PM 22.9891 -82.4091 180° South  Level Estimated
Tue 09:31:00 PM 22.9891 -82.4091 180° South  Level Estimated
Tue 09:32:00 PM 22.9891 -82.4091 180° South  Level Estimated
Tue 09:33:00 PM 22.9891 -82.4091 180° South  Level Estimated
Tue 09:34:00 PM 22.9891 -82.4091 180° South  Level Estimated
Tue 09:35:00 PM 22.9891 -82.4091 180° South  Level Estimated
Tue 09:36:00 PM 22.9891 -82.4091 180° South  Level Estimated
Tue 09:37:00 PM 22.9891 -82.4091 180° South  Level Estimated
Tue 09:38:00 PM 22.9891 -82.4091 180° South  Level Estimated
Tue 09:39:00 PM 22.9891 -82.4091 180° South  Level Estimated
Tue 09:40:00 PM 22.9891 -82.4091 180° South  Level Estimated
Tue 09:41:00 PM 22.9891 -82.4091 180° South  Level Estimated
Tue 09:42:00 PM 22.9891 -82.4091 180° South  Level Estimated
Tue 09:43:00 PM 22.9891 -82.4091 180° South  Level Estimated

Login

Don't have an account? Register now (free) for customized features, flight alerts, and more!